sensor_id;sensor_type;location;lat;lon;timestamp;temperature;humidity
7192;DHT22;3637;51.494;11.958;2023-03-16T00:01:14;2.30;99.90
7192;DHT22;3637;51.494;11.958;2023-03-16T00:04:16;2.30;99.90
7192;DHT22;3637;51.494;11.958;2023-03-16T00:07:18;2.40;99.90
7192;DHT22;3637;51.494;11.958;2023-03-16T00:10:20;2.30;99.90
7192;DHT22;3637;51.494;11.958;2023-03-16T00:13:28;2.20;99.90
7192;DHT22;3637;51.494;11.958;2023-03-16T00:16:30;2.30;99.90
7192;DHT22;3637;51.494;11.958;2023-03-16T00:19:32;2.20;99.90
7192;DHT22;3637;51.494;11.958;2023-03-16T00:22:34;2.20;99.90
7192;DHT22;3637;51.494;11.958;2023-03-16T00:25:36;2.20;99.90
7192;DHT22;3637;51.494;11.958;2023-03-16T00:28:39;2.20;99.90
7192;DHT22;3637;51.494;11.958;2023-03-16T00:31:43;2.10;99.90
7192;DHT22;3637;51.494;11.958;2023-03-16T00:34:45;2.00;99.90
7192;DHT22;3637;51.494;11.958;2023-03-16T00:37:47;2.10;99.90
7192;DHT22;3637;51.494;11.958;2023-03-16T00:40:49;2.10;99.90
7192;DHT22;3637;51.494;11.958;2023-03-16T00:43:52;2.10;99.90
7192;DHT22;3637;51.494;11.958;2023-03-16T00:46:54;3.30;99.90
7192;DHT22;3637;51.494;11.958;2023-03-16T00:49:56;2.10;99.90
7192;DHT22;3637;51.494;11.958;2023-03-16T00:52:58;2.10;99.90
7192;DHT22;3637;51.494;11.958;2023-03-16T00:56:00;2.10;99.90
7192;DHT22;3637;51.494;11.958;2023-03-16T00:59:07;2.00;99.90
7192;DHT22;3637;51.494;11.958;2023-03-16T01:02:13;2.00;99.90
7192;DHT22;3637;51.494;11.958;2023-03-16T01:05:15;2.30;99.90
7192;DHT22;3637;51.494;11.958;2023-03-16T01:08:17;1.90;99.90
7192;DHT22;3637;51.494;11.958;2023-03-16T01:11:21;1.90;99.90
7192;DHT22;3637;51.494;11.958;2023-03-16T01:14:24;1.90;99.90
7192;DHT22;3637;51.494;11.958;2023-03-16T01:17:29;1.90;99.90
7192;DHT22;3637;51.494;11.958;2023-03-16T01:20:34;1.90;99.90
7192;DHT22;3637;51.494;11.958;2023-03-16T01:23:36;1.90;99.90
7192;DHT22;3637;51.494;11.958;2023-03-16T01:26:38;1.80;99.90
7192;DHT22;3637;51.494;11.958;2023-03-16T01:29:41;2.30;99.90
7192;DHT22;3637;51.494;11.958;2023-03-16T01:32:44;1.80;99.90
7192;DHT22;3637;51.494;11.958;2023-03-16T01:35:51;1.80;99.90
7192;DHT22;3637;51.494;11.958;2023-03-16T01:38:53;1.60;99.90
7192;DHT22;3637;51.494;11.958;2023-03-16T01:41:55;1.80;99.90
7192;DHT22;3637;51.494;11.958;2023-03-16T01:44:59;1.70;99.90
7192;DHT22;3637;51.494;11.958;2023-03-16T01:48:05;1.80;99.90
7192;DHT22;3637;51.494;11.958;2023-03-16T01:51:10;1.70;99.90
7192;DHT22;3637;51.494;11.958;2023-03-16T01:54:21;1.70;99.90
7192;DHT22;3637;51.494;11.958;2023-03-16T01:57:26;1.70;99.90
7192;DHT22;3637;51.494;11.958;2023-03-16T02:00:31;1.70;99.90
7192;DHT22;3637;51.494;11.958;2023-03-16T02:03:33;1.70;99.90
7192;DHT22;3637;51.494;11.958;2023-03-16T02:06:36;1.60;99.90
7192;DHT22;3637;51.494;11.958;2023-03-16T02:09:40;1.50;99.90
7192;DHT22;3637;51.494;11.958;2023-03-16T02:12:43;1.60;99.90
7192;DHT22;3637;51.494;11.958;2023-03-16T02:15:50;1.60;99.90
7192;DHT22;3637;51.494;11.958;2023-03-16T02:18:53;1.60;99.90
7192;DHT22;3637;51.494;11.958;2023-03-16T02:22:00;1.40;99.90
7192;DHT22;3637;51.494;11.958;2023-03-16T02:25:03;1.40;99.90
7192;DHT22;3637;51.494;11.958;2023-03-16T02:28:11;1.40;99.90
7192;DHT22;3637;51.494;11.958;2023-03-16T02:31:17;1.40;99.90
7192;DHT22;3637;51.494;11.958;2023-03-16T02:34:19;1.50;99.90
7192;DHT22;3637;51.494;11.958;2023-03-16T02:37:22;1.50;99.90
7192;DHT22;3637;51.494;11.958;2023-03-16T02:40:25;1.40;99.90
7192;DHT22;3637;51.494;11.958;2023-03-16T02:43:31;1.40;99.90
7192;DHT22;3637;51.494;11.958;2023-03-16T02:46:40;1.40;99.90
7192;DHT22;3637;51.494;11.958;2023-03-16T02:49:44;1.30;99.90
7192;DHT22;3637;51.494;11.958;2023-03-16T02:52:46;1.40;99.90
7192;DHT22;3637;51.494;11.958;2023-03-16T02:55:48;1.40;99.90
7192;DHT22;3637;51.494;11.958;2023-03-16T02:58:50;1.30;99.90
7192;DHT22;3637;51.494;11.958;2023-03-16T03:01:53;1.50;99.90
7192;DHT22;3637;51.494;11.958;2023-03-16T03:04:55;1.90;99.90
7192;DHT22;3637;51.494;11.958;2023-03-16T03:07:57;1.20;99.90
7192;DHT22;3637;51.494;11.958;2023-03-16T03:10:58;1.30;99.90
7192;DHT22;3637;51.494;11.958;2023-03-16T03:14:00;1.30;99.90
7192;DHT22;3637;51.494;11.958;2023-03-16T03:17:05;1.20;99.90
7192;DHT22;3637;51.494;11.958;2023-03-16T03:20:08;1.20;99.90
7192;DHT22;3637;51.494;11.958;2023-03-16T03:23:16;1.10;99.90
7192;DHT22;3637;51.494;11.958;2023-03-16T03:26:17;1.10;99.90
7192;DHT22;3637;51.494;11.958;2023-03-16T03:29:19;1.00;99.90
7192;DHT22;3637;51.494;11.958;2023-03-16T03:32:23;1.10;99.90
7192;DHT22;3637;51.494;11.958;2023-03-16T03:35:27;1.00;99.90
7192;DHT22;3637;51.494;11.958;2023-03-16T03:38:29;0.90;99.90
7192;DHT22;3637;51.494;11.958;2023-03-16T03:41:31;0.90;99.90
7192;DHT22;3637;51.494;11.958;2023-03-16T03:44:33;1.00;99.90
7192;DHT22;3637;51.494;11.958;2023-03-16T03:47:36;1.10;99.90
7192;DHT22;3637;51.494;11.958;2023-03-16T03:50:38;1.00;99.90
7192;DHT22;3637;51.494;11.958;2023-03-16T03:53:40;1.00;99.90
7192;DHT22;3637;51.494;11.958;2023-03-16T03:56:42;1.20;99.90
7192;DHT22;3637;51.494;11.958;2023-03-16T03:59:44;1.00;99.90
7192;DHT22;3637;51.494;11.958;2023-03-16T04:02:47;1.10;99.90
7192;DHT22;3637;51.494;11.958;2023-03-16T04:05:49;1.10;99.90
7192;DHT22;3637;51.494;11.958;2023-03-16T04:08:51;1.70;99.90
7192;DHT22;3637;51.494;11.958;2023-03-16T04:11:54;1.10;99.90
7192;DHT22;3637;51.494;11.958;2023-03-16T04:14:57;1.40;99.90
7192;DHT22;3637;51.494;11.958;2023-03-16T04:18:00;1.00;99.90
7192;DHT22;3637;51.494;11.958;2023-03-16T04:21:04;1.00;99.90
7192;DHT22;3637;51.494;11.958;2023-03-16T04:24:06;1.00;99.90
7192;DHT22;3637;51.494;11.958;2023-03-16T04:27:08;1.60;99.90
7192;DHT22;3637;51.494;11.958;2023-03-16T04:30:12;1.10;99.90
7192;DHT22;3637;51.494;11.958;2023-03-16T04:33:16;1.00;99.90
7192;DHT22;3637;51.494;11.958;2023-03-16T04:36:18;0.90;99.90
7192;DHT22;3637;51.494;11.958;2023-03-16T04:39:20;1.00;99.90
7192;DHT22;3637;51.494;11.958;2023-03-16T04:42:22;2.20;99.90
7192;DHT22;3637;51.494;11.958;2023-03-16T04:45:23;0.80;99.90
7192;DHT22;3637;51.494;11.958;2023-03-16T04:48:27;0.80;99.90
7192;DHT22;3637;51.494;11.958;2023-03-16T04:51:29;0.80;99.90
7192;DHT22;3637;51.494;11.958;2023-03-16T04:54:32;0.80;99.90
7192;DHT22;3637;51.494;11.958;2023-03-16T04:57:34;0.80;99.90
7192;DHT22;3637;51.494;11.958;2023-03-16T05:00:35;0.70;99.90
7192;DHT22;3637;51.494;11.958;2023-03-16T05:03:39;0.70;99.90
7192;DHT22;3637;51.494;11.958;2023-03-16T05:06:41;0.70;99.90
7192;DHT22;3637;51.494;11.958;2023-03-16T05:09:43;0.70;99.90
7192;DHT22;3637;51.494;11.958;2023-03-16T05:12:46;1.40;99.90
7192;DHT22;3637;51.494;11.958;2023-03-16T05:15:48;0.70;99.90
7192;DHT22;3637;51.494;11.958;2023-03-16T05:18:56;0.70;99.90
7192;DHT22;3637;51.494;11.958;2023-03-16T05:21:58;1.20;99.90
7192;DHT22;3637;51.494;11.958;2023-03-16T05:25:00;0.70;99.90
7192;DHT22;3637;51.494;11.958;2023-03-16T05:28:04;0.60;99.90
7192;DHT22;3637;51.494;11.958;2023-03-16T05:31:08;0.60;99.90
7192;DHT22;3637;51.494;11.958;2023-03-16T05:34:11;0.10;99.90
7192;DHT22;3637;51.494;11.958;2023-03-16T05:37:13;0.70;99.90
7192;DHT22;3637;51.494;11.958;2023-03-16T05:40:19;0.60;99.90
7192;DHT22;3637;51.494;11.958;2023-03-16T05:43:22;0.60;99.90
7192;DHT22;3637;51.494;11.958;2023-03-16T05:46:24;0.50;99.90
7192;DHT22;3637;51.494;11.958;2023-03-16T05:49:29;0.60;99.90
7192;DHT22;3637;51.494;11.958;2023-03-16T05:52:31;0.60;99.90
7192;DHT22;3637;51.494;11.958;2023-03-16T05:55:34;0.60;99.90
7192;DHT22;3637;51.494;11.958;2023-03-16T05:58:36;0.60;99.90
7192;DHT22;3637;51.494;11.958;2023-03-16T06:01:38;0.60;99.90
7192;DHT22;3637;51.494;11.958;2023-03-16T06:04:41;0.60;99.90
7192;DHT22;3637;51.494;11.958;2023-03-16T06:07:43;0.70;99.90
7192;DHT22;3637;51.494;11.958;2023-03-16T06:10:45;0.80;99.90
7192;DHT22;3637;51.494;11.958;2023-03-16T06:13:47;0.80;99.90
7192;DHT22;3637;51.494;11.958;2023-03-16T06:16:49;0.90;99.90
7192;DHT22;3637;51.494;11.958;2023-03-16T06:19:52;0.90;99.90
7192;DHT22;3637;51.494;11.958;2023-03-16T06:22:54;1.40;99.90
7192;DHT22;3637;51.494;11.958;2023-03-16T06:25:56;1.00;99.90
7192;DHT22;3637;51.494;11.958;2023-03-16T06:28:59;1.40;99.90
7192;DHT22;3637;51.494;11.958;2023-03-16T06:32:11;1.10;99.90
7192;DHT22;3637;51.494;11.958;2023-03-16T06:35:14;1.10;99.90
7192;DHT22;3637;51.494;11.958;2023-03-16T06:38:17;1.20;99.90
7192;DHT22;3637;51.494;11.958;2023-03-16T06:41:19;1.70;99.90
7192;DHT22;3637;51.494;11.958;2023-03-16T06:44:24;1.20;99.90
7192;DHT22;3637;51.494;11.958;2023-03-16T06:47:25;1.30;99.90
7192;DHT22;3637;51.494;11.958;2023-03-16T06:50:29;0.90;99.90
7192;DHT22;3637;51.494;11.958;2023-03-16T06:53:31;1.50;99.90
7192;DHT22;3637;51.494;11.958;2023-03-16T06:56:32;1.50;99.90
7192;DHT22;3637;51.494;11.958;2023-03-16T06:59:34;2.30;99.90
7192;DHT22;3637;51.494;11.958;2023-03-16T07:02:36;1.80;99.90
7192;DHT22;3637;51.494;11.958;2023-03-16T07:05:41;2.00;99.90
7192;DHT22;3637;51.494;11.958;2023-03-16T07:08:43;2.10;99.90
7192;DHT22;3637;51.494;11.958;2023-03-16T07:11:45;2.30;99.90
7192;DHT22;3637;51.494;11.958;2023-03-16T07:14:46;2.40;99.90
7192;DHT22;3637;51.494;11.958;2023-03-16T07:17:48;2.60;99.90
7192;DHT22;3637;51.494;11.958;2023-03-16T07:20:53;2.70;99.90
7192;DHT22;3637;51.494;11.958;2023-03-16T07:23:55;3.10;99.90
7192;DHT22;3637;51.494;11.958;2023-03-16T07:26:57;2.90;99.90
7192;DHT22;3637;51.494;11.958;2023-03-16T07:29:59;2.90;99.90
7192;DHT22;3637;51.494;11.958;2023-03-16T07:33:01;2.90;99.90
7192;DHT22;3637;51.494;11.958;2023-03-16T07:36:04;4.20;99.90
7192;DHT22;3637;51.494;11.958;2023-03-16T07:39:06;3.20;99.90
7192;DHT22;3637;51.494;11.958;2023-03-16T07:42:08;3.20;99.90
7192;DHT22;3637;51.494;11.958;2023-03-16T07:45:10;3.20;99.90
7192;DHT22;3637;51.494;11.958;2023-03-16T07:48:13;3.20;99.90
7192;DHT22;3637;51.494;11.958;2023-03-16T07:51:16;3.40;99.90
7192;DHT22;3637;51.494;11.958;2023-03-16T07:54:18;3.60;99.90
7192;DHT22;3637;51.494;11.958;2023-03-16T07:57:20;3.60;99.90
7192;DHT22;3637;51.494;11.958;2023-03-16T08:00:31;3.90;99.90
7192;DHT22;3637;51.494;11.958;2023-03-16T08:03:33;4.80;99.90
7192;DHT22;3637;51.494;11.958;2023-03-16T08:06:36;4.00;99.90
7192;DHT22;3637;51.494;11.958;2023-03-16T08:09:39;4.10;99.90
7192;DHT22;3637;51.494;11.958;2023-03-16T08:12:41;5.50;99.90
7192;DHT22;3637;51.494;11.958;2023-03-16T08:15:45;4.30;99.90
7192;DHT22;3637;51.494;11.958;2023-03-16T08:18:47;4.20;99.90
7192;DHT22;3637;51.494;11.958;2023-03-16T08:21:52;4.60;99.90
7192;DHT22;3637;51.494;11.958;2023-03-16T08:24:54;5.80;99.90
7192;DHT22;3637;51.494;11.958;2023-03-16T08:27:56;4.70;99.90
7192;DHT22;3637;51.494;11.958;2023-03-16T08:30:58;5.30;99.90
7192;DHT22;3637;51.494;11.958;2023-03-16T08:34:00;4.80;99.90
7192;DHT22;3637;51.494;11.958;2023-03-16T08:37:07;4.90;99.90
7192;DHT22;3637;51.494;11.958;2023-03-16T08:40:11;5.70;99.90
7192;DHT22;3637;51.494;11.958;2023-03-16T08:43:18;5.20;99.90
7192;DHT22;3637;51.494;11.958;2023-03-16T08:46:20;4.70;99.90
7192;DHT22;3637;51.494;11.958;2023-03-16T08:49:23;4.70;99.90
7192;DHT22;3637;51.494;11.958;2023-03-16T08:52:28;5.50;99.90
7192;DHT22;3637;51.494;11.958;2023-03-16T08:55:31;5.60;99.90
7192;DHT22;3637;51.494;11.958;2023-03-16T08:58:34;5.90;99.90
7192;DHT22;3637;51.494;11.958;2023-03-16T09:01:36;6.00;99.90
7192;DHT22;3637;51.494;11.958;2023-03-16T09:04:40;6.80;99.90
7192;DHT22;3637;51.494;11.958;2023-03-16T09:07:43;6.50;99.90
7192;DHT22;3637;51.494;11.958;2023-03-16T09:10:45;6.00;99.90
7192;DHT22;3637;51.494;11.958;2023-03-16T09:13:47;6.10;99.90
7192;DHT22;3637;51.494;11.958;2023-03-16T09:16:49;6.40;99.50
7192;DHT22;3637;51.494;11.958;2023-03-16T09:19:51;6.20;99.50
7192;DHT22;3637;51.494;11.958;2023-03-16T09:22:55;6.30;99.50
7192;DHT22;3637;51.494;11.958;2023-03-16T09:25:59;6.40;99.50
7192;DHT22;3637;51.494;11.958;2023-03-16T09:29:01;6.70;98.70
7192;DHT22;3637;51.494;11.958;2023-03-16T09:32:03;7.00;98.80
7192;DHT22;3637;51.494;11.958;2023-03-16T09:35:06;6.70;98.10
7192;DHT22;3637;51.494;11.958;2023-03-16T09:38:12;6.60;98.00
7192;DHT22;3637;51.494;11.958;2023-03-16T09:41:34;6.50;97.20
7192;DHT22;3637;51.494;11.958;2023-03-16T09:44:43;6.80;96.20
7192;DHT22;3637;51.494;11.958;2023-03-16T09:47:49;6.60;96.00
7192;DHT22;3637;51.494;11.958;2023-03-16T09:50:53;6.80;95.80
7192;DHT22;3637;51.494;11.958;2023-03-16T09:54:00;6.90;95.50
7192;DHT22;3637;51.494;11.958;2023-03-16T09:57:04;7.00;94.50
7192;DHT22;3637;51.494;11.958;2023-03-16T10:00:19;6.90;94.60
7192;DHT22;3637;51.494;11.958;2023-03-16T10:03:31;7.10;93.90
7192;DHT22;3637;51.494;11.958;2023-03-16T10:06:47;7.20;92.50
7192;DHT22;3637;51.494;11.958;2023-03-16T10:09:55;7.30;91.90
7192;DHT22;3637;51.494;11.958;2023-03-16T10:12:59;7.20;91.40
7192;DHT22;3637;51.494;11.958;2023-03-16T10:16:06;8.10;91.30
7192;DHT22;3637;51.494;11.958;2023-03-16T10:19:13;7.60;91.80
7192;DHT22;3637;51.494;11.958;2023-03-16T10:22:20;7.60;92.30
7192;DHT22;3637;51.494;11.958;2023-03-16T10:25:28;7.50;91.90
7192;DHT22;3637;51.494;11.958;2023-03-16T10:28:32;7.60;92.00
7192;DHT22;3637;51.494;11.958;2023-03-16T10:31:34;7.30;91.40
7192;DHT22;3637;51.494;11.958;2023-03-16T10:34:37;7.80;91.10
7192;DHT22;3637;51.494;11.958;2023-03-16T10:37:39;7.80;90.70
7192;DHT22;3637;51.494;11.958;2023-03-16T10:40:42;7.80;91.50
7192;DHT22;3637;51.494;11.958;2023-03-16T10:43:44;7.80;91.10
7192;DHT22;3637;51.494;11.958;2023-03-16T10:46:48;7.90;91.60
7192;DHT22;3637;51.494;11.958;2023-03-16T10:49:53;8.00;91.10
7192;DHT22;3637;51.494;11.958;2023-03-16T10:52:55;8.00;90.60
7192;DHT22;3637;51.494;11.958;2023-03-16T10:55:59;8.10;92.20
7192;DHT22;3637;51.494;11.958;2023-03-16T10:59:12;8.00;92.00
7192;DHT22;3637;51.494;11.958;2023-03-16T11:02:19;8.00;92.30
7192;DHT22;3637;51.494;11.958;2023-03-16T11:05:28;8.10;90.70
7192;DHT22;3637;51.494;11.958;2023-03-16T11:08:31;8.00;91.00
7192;DHT22;3637;51.494;11.958;2023-03-16T11:11:35;8.10;91.80
7192;DHT22;3637;51.494;11.958;2023-03-16T11:14:37;8.20;91.50
7192;DHT22;3637;51.494;11.958;2023-03-16T11:17:44;8.00;91.80
7192;DHT22;3637;51.494;11.958;2023-03-16T11:20:47;8.00;92.30
7192;DHT22;3637;51.494;11.958;2023-03-16T11:23:53;8.10;91.30
7192;DHT22;3637;51.494;11.958;2023-03-16T11:26:58;8.20;90.80
7192;DHT22;3637;51.494;11.958;2023-03-16T11:30:08;8.30;90.10
7192;DHT22;3637;51.494;11.958;2023-03-16T11:33:12;8.30;90.00
7192;DHT22;3637;51.494;11.958;2023-03-16T11:36:28;9.00;88.70
7192;DHT22;3637;51.494;11.958;2023-03-16T11:39:38;8.30;88.20
7192;DHT22;3637;51.494;11.958;2023-03-16T11:42:51;8.80;88.20
7192;DHT22;3637;51.494;11.958;2023-03-16T11:46:07;8.40;86.20
7192;DHT22;3637;51.494;11.958;2023-03-16T11:49:24;8.40;83.40
7192;DHT22;3637;51.494;11.958;2023-03-16T11:52:40;8.40;80.30
7192;DHT22;3637;51.494;11.958;2023-03-16T11:55:55;8.40;77.10
7192;DHT22;3637;51.494;11.958;2023-03-16T11:59:27;8.40;77.40
7192;DHT22;3637;51.494;11.958;2023-03-16T12:02:53;8.50;77.60
7192;DHT22;3637;51.494;11.958;2023-03-16T12:06:02;8.50;76.00
7192;DHT22;3637;51.494;11.958;2023-03-16T12:09:35;8.50;75.70
7192;DHT22;3637;51.494;11.958;2023-03-16T12:12:55;8.60;76.40
7192;DHT22;3637;51.494;11.958;2023-03-16T12:16:04;8.70;76.10
7192;DHT22;3637;51.494;11.958;2023-03-16T12:19:12;8.80;74.00
7192;DHT22;3637;51.494;11.958;2023-03-16T12:22:18;8.90;74.10
7192;DHT22;3637;51.494;11.958;2023-03-16T12:25:25;9.00;74.80
7192;DHT22;3637;51.494;11.958;2023-03-16T12:28:28;8.90;69.90
7192;DHT22;3637;51.494;11.958;2023-03-16T12:31:38;8.90;69.50
7192;DHT22;3637;51.494;11.958;2023-03-16T12:34:47;9.80;68.70
7192;DHT22;3637;51.494;11.958;2023-03-16T12:38:02;9.50;70.70
7192;DHT22;3637;51.494;11.958;2023-03-16T12:41:21;9.00;71.10
7192;DHT22;3637;51.494;11.958;2023-03-16T12:44:32;9.10;70.30
7192;DHT22;3637;51.494;11.958;2023-03-16T12:47:45;9.40;68.50
7192;DHT22;3637;51.494;11.958;2023-03-16T12:50:51;9.20;68.20
7192;DHT22;3637;51.494;11.958;2023-03-16T12:53:54;9.40;68.30
7192;DHT22;3637;51.494;11.958;2023-03-16T12:57:03;9.50;67.60
7192;DHT22;3637;51.494;11.958;2023-03-16T13:00:08;9.40;67.70
7192;DHT22;3637;51.494;11.958;2023-03-16T13:03:20;9.30;69.20
7192;DHT22;3637;51.494;11.958;2023-03-16T13:06:28;9.60;69.00
7192;DHT22;3637;51.494;11.958;2023-03-16T13:09:35;9.30;69.20
7192;DHT22;3637;51.494;11.958;2023-03-16T13:12:40;9.30;69.00
7192;DHT22;3637;51.494;11.958;2023-03-16T13:15:44;9.30;70.40
7192;DHT22;3637;51.494;11.958;2023-03-16T13:18:50;9.60;70.20
7192;DHT22;3637;51.494;11.958;2023-03-16T13:22:04;9.30;69.10
7192;DHT22;3637;51.494;11.958;2023-03-16T13:25:13;9.30;67.70
7192;DHT22;3637;51.494;11.958;2023-03-16T13:28:15;9.30;68.30
7192;DHT22;3637;51.494;11.958;2023-03-16T13:31:26;10.30;68.50
7192;DHT22;3637;51.494;11.958;2023-03-16T13:34:38;10.10;68.80
7192;DHT22;3637;51.494;11.958;2023-03-16T13:37:45;9.50;67.20
7192;DHT22;3637;51.494;11.958;2023-03-16T13:40:49;9.40;67.60
7192;DHT22;3637;51.494;11.958;2023-03-16T13:43:51;9.70;66.70
7192;DHT22;3637;51.494;11.958;2023-03-16T13:46:53;9.80;65.60
7192;DHT22;3637;51.494;11.958;2023-03-16T13:50:11;9.50;65.90
7192;DHT22;3637;51.494;11.958;2023-03-16T13:53:25;9.50;67.50
7192;DHT22;3637;51.494;11.958;2023-03-16T13:56:30;9.60;66.20
7192;DHT22;3637;51.494;11.958;2023-03-16T13:59:32;9.40;66.40
7192;DHT22;3637;51.494;11.958;2023-03-16T14:02:39;9.80;67.80
7192;DHT22;3637;51.494;11.958;2023-03-16T14:05:44;10.20;68.70
7192;DHT22;3637;51.494;11.958;2023-03-16T14:08:49;10.00;68.10
7192;DHT22;3637;51.494;11.958;2023-03-16T14:11:52;9.40;67.40
7192;DHT22;3637;51.494;11.958;2023-03-16T14:14:54;9.30;67.30
7192;DHT22;3637;51.494;11.958;2023-03-16T14:18:11;9.30;67.20
7192;DHT22;3637;51.494;11.958;2023-03-16T14:21:16;9.10;65.30
7192;DHT22;3637;51.494;11.958;2023-03-16T14:24:27;9.40;65.00
7192;DHT22;3637;51.494;11.958;2023-03-16T14:27:31;9.40;66.40
7192;DHT22;3637;51.494;11.958;2023-03-16T14:30:50;9.60;65.20
7192;DHT22;3637;51.494;11.958;2023-03-16T14:33:59;9.70;66.40
7192;DHT22;3637;51.494;11.958;2023-03-16T14:37:06;9.50;66.20
7192;DHT22;3637;51.494;11.958;2023-03-16T14:40:25;9.50;65.40
7192;DHT22;3637;51.494;11.958;2023-03-16T14:43:30;9.40;64.30
7192;DHT22;3637;51.494;11.958;2023-03-16T14:46:36;9.40;65.10
7192;DHT22;3637;51.494;11.958;2023-03-16T14:49:39;9.10;63.40
7192;DHT22;3637;51.494;11.958;2023-03-16T14:52:43;9.20;63.50
7192;DHT22;3637;51.494;11.958;2023-03-16T14:55:45;9.30;63.40
7192;DHT22;3637;51.494;11.958;2023-03-16T14:58:47;9.30;63.70
7192;DHT22;3637;51.494;11.958;2023-03-16T15:01:51;9.20;63.90
7192;DHT22;3637;51.494;11.958;2023-03-16T15:04:57;9.10;64.70
7192;DHT22;3637;51.494;11.958;2023-03-16T15:08:04;9.30;63.40
7192;DHT22;3637;51.494;11.958;2023-03-16T15:11:09;9.00;62.60
7192;DHT22;3637;51.494;11.958;2023-03-16T15:14:13;9.60;63.00
7192;DHT22;3637;51.494;11.958;2023-03-16T15:17:35;9.20;62.10
7192;DHT22;3637;51.494;11.958;2023-03-16T15:20:40;9.50;62.10
7192;DHT22;3637;51.494;11.958;2023-03-16T15:23:44;9.00;62.40
7192;DHT22;3637;51.494;11.958;2023-03-16T15:26:46;9.10;62.30
7192;DHT22;3637;51.494;11.958;2023-03-16T15:29:51;9.20;62.00
7192;DHT22;3637;51.494;11.958;2023-03-16T15:32:55;9.10;63.60
7192;DHT22;3637;51.494;11.958;2023-03-16T15:35:58;8.80;63.40
7192;DHT22;3637;51.494;11.958;2023-03-16T15:39:02;8.90;62.70
7192;DHT22;3637;51.494;11.958;2023-03-16T15:42:12;8.80;63.30
7192;DHT22;3637;51.494;11.958;2023-03-16T15:45:17;8.90;63.30
7192;DHT22;3637;51.494;11.958;2023-03-16T15:48:21;8.80;63.00
7192;DHT22;3637;51.494;11.958;2023-03-16T15:51:33;8.80;64.60
7192;DHT22;3637;51.494;11.958;2023-03-16T15:54:48;8.80;64.00
7192;DHT22;3637;51.494;11.958;2023-03-16T15:57:56;8.70;64.90
7192;DHT22;3637;51.494;11.958;2023-03-16T16:00:59;8.80;65.30
7192;DHT22;3637;51.494;11.958;2023-03-16T16:04:02;8.90;65.90
7192;DHT22;3637;51.494;11.958;2023-03-16T16:07:08;8.70;66.00
7192;DHT22;3637;51.494;11.958;2023-03-16T16:10:13;8.80;66.40
7192;DHT22;3637;51.494;11.958;2023-03-16T16:13:18;8.80;66.50
7192;DHT22;3637;51.494;11.958;2023-03-16T16:16:21;8.80;66.20
7192;DHT22;3637;51.494;11.958;2023-03-16T16:19:23;8.80;65.70
7192;DHT22;3637;51.494;11.958;2023-03-16T16:22:24;8.80;66.40
7192;DHT22;3637;51.494;11.958;2023-03-16T16:25:33;8.80;64.90
7192;DHT22;3637;51.494;11.958;2023-03-16T16:28:37;8.70;65.00
7192;DHT22;3637;51.494;11.958;2023-03-16T16:31:39;8.70;65.80
7192;DHT22;3637;51.494;11.958;2023-03-16T16:34:41;8.70;65.20
7192;DHT22;3637;51.494;11.958;2023-03-16T16:37:46;9.50;65.50
7192;DHT22;3637;51.494;11.958;2023-03-16T16:41:05;8.80;66.20
7192;DHT22;3637;51.494;11.958;2023-03-16T16:48:56;8.60;67.00
7192;DHT22;3637;51.494;11.958;2023-03-16T16:52:07;7.30;67.20
7192;DHT22;3637;51.494;11.958;2023-03-16T16:55:35;8.50;68.70
7192;DHT22;3637;51.494;11.958;2023-03-16T16:58:48;8.50;68.20
7192;DHT22;3637;51.494;11.958;2023-03-16T17:01:51;8.50;68.90
7192;DHT22;3637;51.494;11.958;2023-03-16T17:04:53;8.40;69.00
7192;DHT22;3637;51.494;11.958;2023-03-16T17:07:56;8.40;70.00
7192;DHT22;3637;51.494;11.958;2023-03-16T17:11:03;8.40;71.30
7192;DHT22;3637;51.494;11.958;2023-03-16T17:14:06;8.50;71.40
7192;DHT22;3637;51.494;11.958;2023-03-16T17:17:12;8.30;71.90
7192;DHT22;3637;51.494;11.958;2023-03-16T17:20:17;8.40;72.90
7192;DHT22;3637;51.494;11.958;2023-03-16T17:23:27;8.40;73.40
7192;DHT22;3637;51.494;11.958;2023-03-16T17:26:32;8.30;74.20
7192;DHT22;3637;51.494;11.958;2023-03-16T17:29:39;9.60;76.00
7192;DHT22;3637;51.494;11.958;2023-03-16T17:32:42;9.70;77.00
7192;DHT22;3637;51.494;11.958;2023-03-16T17:35:46;8.20;77.30
7192;DHT22;3637;51.494;11.958;2023-03-16T17:38:49;8.20;77.60
7192;DHT22;3637;51.494;11.958;2023-03-16T17:42:00;8.60;78.40
7192;DHT22;3637;51.494;11.958;2023-03-16T17:45:17;8.20;79.10
7192;DHT22;3637;51.494;11.958;2023-03-16T17:48:21;8.10;80.30
7192;DHT22;3637;51.494;11.958;2023-03-16T17:51:23;8.20;80.70
7192;DHT22;3637;51.494;11.958;2023-03-16T17:54:28;8.10;81.60
7192;DHT22;3637;51.494;11.958;2023-03-16T17:57:32;8.50;82.00
7192;DHT22;3637;51.494;11.958;2023-03-16T18:00:35;8.60;82.80
7192;DHT22;3637;51.494;11.958;2023-03-16T18:03:39;8.20;82.80
7192;DHT22;3637;51.494;11.958;2023-03-16T18:06:43;7.90;82.70
7192;DHT22;3637;51.494;11.958;2023-03-16T18:09:46;8.00;83.10
7192;DHT22;3637;51.494;11.958;2023-03-16T18:12:53;7.70;82.60
7192;DHT22;3637;51.494;11.958;2023-03-16T18:15:58;8.90;84.00
7192;DHT22;3637;51.494;11.958;2023-03-16T18:19:03;8.20;83.60
7192;DHT22;3637;51.494;11.958;2023-03-16T18:22:13;8.80;84.80
7192;DHT22;3637;51.494;11.958;2023-03-16T18:25:30;8.00;84.30
7192;DHT22;3637;51.494;11.958;2023-03-16T18:28:37;7.90;85.00
7192;DHT22;3637;51.494;11.958;2023-03-16T18:31:43;8.00;85.40
7192;DHT22;3637;51.494;11.958;2023-03-16T18:34:46;7.80;86.00
7192;DHT22;3637;51.494;11.958;2023-03-16T18:37:48;8.00;86.80
7192;DHT22;3637;51.494;11.958;2023-03-16T18:40:52;8.00;87.40
7192;DHT22;3637;51.494;11.958;2023-03-16T18:43:55;7.30;87.40
7192;DHT22;3637;51.494;11.958;2023-03-16T18:50:36;8.10;88.70
7192;DHT22;3637;51.494;11.958;2023-03-16T18:53:43;8.00;89.20
7192;DHT22;3637;51.494;11.958;2023-03-16T18:56:44;7.60;89.00
7192;DHT22;3637;51.494;11.958;2023-03-16T18:59:47;7.60;89.60
7192;DHT22;3637;51.494;11.958;2023-03-16T19:02:57;7.60;90.30
7192;DHT22;3637;51.494;11.958;2023-03-16T19:06:01;8.30;90.70
7192;DHT22;3637;51.494;11.958;2023-03-16T19:09:04;7.50;90.80
7192;DHT22;3637;51.494;11.958;2023-03-16T19:12:08;7.50;91.00
7192;DHT22;3637;51.494;11.958;2023-03-16T19:15:18;8.00;91.50
7192;DHT22;3637;51.494;11.958;2023-03-16T19:18:22;7.40;91.30
7192;DHT22;3637;51.494;11.958;2023-03-16T19:21:25;7.40;91.40
7192;DHT22;3637;51.494;11.958;2023-03-16T19:24:30;7.40;91.50
7192;DHT22;3637;51.494;11.958;2023-03-16T19:27:34;7.40;91.60
7192;DHT22;3637;51.494;11.958;2023-03-16T19:30:37;7.70;92.20
7192;DHT22;3637;51.494;11.958;2023-03-16T19:33:40;7.30;92.00
7192;DHT22;3637;51.494;11.958;2023-03-16T19:36:45;7.30;92.20
7192;DHT22;3637;51.494;11.958;2023-03-16T19:39:46;7.20;92.50
7192;DHT22;3637;51.494;11.958;2023-03-16T19:42:49;7.20;92.40
7192;DHT22;3637;51.494;11.958;2023-03-16T19:45:51;7.20;92.70
7192;DHT22;3637;51.494;11.958;2023-03-16T19:48:55;7.20;92.90
7192;DHT22;3637;51.494;11.958;2023-03-16T19:51:57;7.20;93.30
7192;DHT22;3637;51.494;11.958;2023-03-16T19:54:59;7.10;93.30
7192;DHT22;3637;51.494;11.958;2023-03-16T19:58:02;7.10;93.40
7192;DHT22;3637;51.494;11.958;2023-03-16T20:01:13;7.00;93.70
7192;DHT22;3637;51.494;11.958;2023-03-16T20:04:20;7.00;93.80
7192;DHT22;3637;51.494;11.958;2023-03-16T20:07:22;7.80;94.10
7192;DHT22;3637;51.494;11.958;2023-03-16T20:10:26;6.90;94.20
7192;DHT22;3637;51.494;11.958;2023-03-16T20:13:29;6.90;94.10
7192;DHT22;3637;51.494;11.958;2023-03-16T20:16:32;6.80;94.30